sensor_id;sensor_type;location;lat;lon;timestamp;P1;durP1;ratioP1;P2;durP2;ratioP2
15202;SDS011;7702;51.046;5.184;2023-09-30T00:02:18;10.07;;;6.47;;
15202;SDS011;7702;51.046;5.184;2023-09-30T00:04:44;8.50;;;6.47;;
15202;SDS011;7702;51.046;5.184;2023-09-30T00:07:09;9.07;;;7.03;;
15202;SDS011;7702;51.046;5.184;2023-09-30T00:09:35;7.53;;;6.50;;
15202;SDS011;7702;51.046;5.184;2023-09-30T00:12:02;10.13;;;6.73;;
15202;SDS011;7702;51.046;5.184;2023-09-30T00:14:28;8.40;;;6.40;;
15202;SDS011;7702;51.046;5.184;2023-09-30T00:16:54;8.67;;;6.70;;
15202;SDS011;7702;51.046;5.184;2023-09-30T00:19:20;9.13;;;7.13;;
15202;SDS011;7702;51.046;5.184;2023-09-30T00:21:47;9.17;;;6.57;;
15202;SDS011;7702;51.046;5.184;2023-09-30T00:24:13;9.00;;;6.80;;
15202;SDS011;7702;51.046;5.184;2023-09-30T00:26:39;9.17;;;6.40;;
15202;SDS011;7702;51.046;5.184;2023-09-30T00:29:05;11.43;;;7.17;;
15202;SDS011;7702;51.046;5.184;2023-09-30T00:31:30;8.17;;;6.83;;
15202;SDS011;7702;51.046;5.184;2023-09-30T00:33:57;8.23;;;6.23;;
15202;SDS011;7702;51.046;5.184;2023-09-30T00:36:22;8.27;;;6.20;;
15202;SDS011;7702;51.046;5.184;2023-09-30T00:38:49;9.30;;;6.20;;
15202;SDS011;7702;51.046;5.184;2023-09-30T00:41:14;17.77;;;7.53;;
15202;SDS011;7702;51.046;5.184;2023-09-30T00:43:40;14.27;;;7.17;;
15202;SDS011;7702;51.046;5.184;2023-09-30T00:48:38;13.10;;;7.03;;
15202;SDS011;7702;51.046;5.184;2023-09-30T00:51:05;13.07;;;7.47;;
15202;SDS011;7702;51.046;5.184;2023-09-30T00:53:31;13.60;;;7.90;;
15202;SDS011;7702;51.046;5.184;2023-09-30T00:55:57;8.97;;;7.50;;
15202;SDS011;7702;51.046;5.184;2023-09-30T00:58:25;10.50;;;7.57;;
15202;SDS011;7702;51.046;5.184;2023-09-30T01:00:53;10.33;;;8.07;;
15202;SDS011;7702;51.046;5.184;2023-09-30T01:03:22;11.53;;;7.53;;
15202;SDS011;7702;51.046;5.184;2023-09-30T01:05:48;10.77;;;7.77;;
15202;SDS011;7702;51.046;5.184;2023-09-30T01:08:14;12.67;;;7.73;;
15202;SDS011;7702;51.046;5.184;2023-09-30T01:10:44;11.00;;;7.67;;
15202;SDS011;7702;51.046;5.184;2023-09-30T01:13:10;12.07;;;8.33;;
15202;SDS011;7702;51.046;5.184;2023-09-30T01:15:36;11.83;;;8.50;;
15202;SDS011;7702;51.046;5.184;2023-09-30T01:18:03;12.90;;;9.20;;
15202;SDS011;7702;51.046;5.184;2023-09-30T01:20:29;11.00;;;8.33;;
15202;SDS011;7702;51.046;5.184;2023-09-30T01:22:56;11.37;;;8.60;;
15202;SDS011;7702;51.046;5.184;2023-09-30T01:25:22;13.20;;;8.97;;
15202;SDS011;7702;51.046;5.184;2023-09-30T01:27:49;12.77;;;9.23;;
15202;SDS011;7702;51.046;5.184;2023-09-30T01:30:16;18.67;;;9.70;;
15202;SDS011;7702;51.046;5.184;2023-09-30T01:32:43;18.03;;;11.17;;
15202;SDS011;7702;51.046;5.184;2023-09-30T01:35:09;19.93;;;11.00;;
15202;SDS011;7702;51.046;5.184;2023-09-30T01:37:35;20.63;;;10.73;;
15202;SDS011;7702;51.046;5.184;2023-09-30T01:40:01;22.17;;;10.70;;
15202;SDS011;7702;51.046;5.184;2023-09-30T01:42:29;18.63;;;10.80;;
15202;SDS011;7702;51.046;5.184;2023-09-30T01:44:54;20.50;;;10.30;;
15202;SDS011;7702;51.046;5.184;2023-09-30T01:47:22;21.67;;;11.33;;
15202;SDS011;7702;51.046;5.184;2023-09-30T01:49:47;16.67;;;8.93;;
15202;SDS011;7702;51.046;5.184;2023-09-30T01:52:13;17.93;;;8.83;;
15202;SDS011;7702;51.046;5.184;2023-09-30T01:54:39;18.53;;;9.63;;
15202;SDS011;7702;51.046;5.184;2023-09-30T01:57:05;17.40;;;9.20;;
15202;SDS011;7702;51.046;5.184;2023-09-30T01:59:31;17.80;;;9.67;;
15202;SDS011;7702;51.046;5.184;2023-09-30T02:01:57;35.73;;;11.90;;
15202;SDS011;7702;51.046;5.184;2023-09-30T02:04:22;20.70;;;9.30;;
15202;SDS011;7702;51.046;5.184;2023-09-30T02:06:48;19.77;;;9.07;;
15202;SDS011;7702;51.046;5.184;2023-09-30T02:09:14;14.63;;;8.00;;
15202;SDS011;7702;51.046;5.184;2023-09-30T02:11:40;9.40;;;6.93;;
15202;SDS011;7702;51.046;5.184;2023-09-30T02:14:09;9.70;;;7.23;;
15202;SDS011;7702;51.046;5.184;2023-09-30T02:16:37;7.53;;;6.70;;
15202;SDS011;7702;51.046;5.184;2023-09-30T02:19:03;10.07;;;7.17;;
15202;SDS011;7702;51.046;5.184;2023-09-30T02:21:29;15.17;;;7.37;;
15202;SDS011;7702;51.046;5.184;2023-09-30T02:23:54;14.37;;;7.50;;
15202;SDS011;7702;51.046;5.184;2023-09-30T02:26:20;9.57;;;7.07;;
15202;SDS011;7702;51.046;5.184;2023-09-30T02:28:47;9.83;;;6.90;;
15202;SDS011;7702;51.046;5.184;2023-09-30T02:31:13;24.40;;;8.50;;
15202;SDS011;7702;51.046;5.184;2023-09-30T02:33:38;9.37;;;6.63;;
15202;SDS011;7702;51.046;5.184;2023-09-30T02:36:08;22.70;;;8.87;;
15202;SDS011;7702;51.046;5.184;2023-09-30T02:38:34;14.37;;;7.70;;
15202;SDS011;7702;51.046;5.184;2023-09-30T02:41:02;14.10;;;8.70;;
15202;SDS011;7702;51.046;5.184;2023-09-30T02:43:28;9.70;;;7.57;;
15202;SDS011;7702;51.046;5.184;2023-09-30T02:45:54;12.27;;;8.30;;
15202;SDS011;7702;51.046;5.184;2023-09-30T02:48:19;9.20;;;6.80;;
15202;SDS011;7702;51.046;5.184;2023-09-30T02:50:46;15.60;;;8.17;;
15202;SDS011;7702;51.046;5.184;2023-09-30T02:53:12;11.50;;;7.57;;
15202;SDS011;7702;51.046;5.184;2023-09-30T02:55:39;15.17;;;8.70;;
15202;SDS011;7702;51.046;5.184;2023-09-30T02:58:05;13.50;;;8.47;;
15202;SDS011;7702;51.046;5.184;2023-09-30T03:00:32;16.93;;;8.73;;
15202;SDS011;7702;51.046;5.184;2023-09-30T03:02:59;12.47;;;8.37;;
15202;SDS011;7702;51.046;5.184;2023-09-30T03:05:27;16.63;;;8.67;;
15202;SDS011;7702;51.046;5.184;2023-09-30T03:07:55;20.53;;;9.10;;
15202;SDS011;7702;51.046;5.184;2023-09-30T03:10:21;16.33;;;8.63;;
15202;SDS011;7702;51.046;5.184;2023-09-30T03:12:51;10.43;;;7.73;;
15202;SDS011;7702;51.046;5.184;2023-09-30T03:15:27;9.57;;;7.73;;
15202;SDS011;7702;51.046;5.184;2023-09-30T03:17:54;8.83;;;7.27;;
15202;SDS011;7702;51.046;5.184;2023-09-30T03:20:20;8.87;;;7.67;;
15202;SDS011;7702;51.046;5.184;2023-09-30T03:22:47;8.07;;;7.37;;
15202;SDS011;7702;51.046;5.184;2023-09-30T03:25:13;9.03;;;7.33;;
15202;SDS011;7702;51.046;5.184;2023-09-30T03:27:42;8.40;;;7.60;;
15202;SDS011;7702;51.046;5.184;2023-09-30T03:30:09;9.47;;;8.10;;
15202;SDS011;7702;51.046;5.184;2023-09-30T03:32:36;8.83;;;7.90;;
15202;SDS011;7702;51.046;5.184;2023-09-30T03:35:06;8.67;;;7.50;;
15202;SDS011;7702;51.046;5.184;2023-09-30T03:37:35;8.93;;;7.57;;
15202;SDS011;7702;51.046;5.184;2023-09-30T03:40:02;9.23;;;7.57;;
15202;SDS011;7702;51.046;5.184;2023-09-30T03:42:39;10.37;;;8.60;;
15202;SDS011;7702;51.046;5.184;2023-09-30T03:45:05;10.97;;;8.30;;
15202;SDS011;7702;51.046;5.184;2023-09-30T03:47:34;12.13;;;8.53;;
15202;SDS011;7702;51.046;5.184;2023-09-30T03:50:01;11.20;;;8.50;;
15202;SDS011;7702;51.046;5.184;2023-09-30T03:52:30;9.23;;;8.03;;
15202;SDS011;7702;51.046;5.184;2023-09-30T03:54:58;10.33;;;8.40;;
15202;SDS011;7702;51.046;5.184;2023-09-30T03:57:30;8.53;;;7.37;;
15202;SDS011;7702;51.046;5.184;2023-09-30T03:59:58;10.43;;;8.70;;
15202;SDS011;7702;51.046;5.184;2023-09-30T04:02:25;11.20;;;7.57;;
15202;SDS011;7702;51.046;5.184;2023-09-30T04:04:50;8.67;;;7.83;;
15202;SDS011;7702;51.046;5.184;2023-09-30T04:07:18;10.73;;;8.67;;
15202;SDS011;7702;51.046;5.184;2023-09-30T04:09:46;12.33;;;8.30;;
15202;SDS011;7702;51.046;5.184;2023-09-30T04:12:13;10.93;;;8.17;;
15202;SDS011;7702;51.046;5.184;2023-09-30T04:14:39;12.13;;;8.60;;
15202;SDS011;7702;51.046;5.184;2023-09-30T04:17:04;11.93;;;7.87;;
15202;SDS011;7702;51.046;5.184;2023-09-30T04:19:30;9.80;;;8.07;;
15202;SDS011;7702;51.046;5.184;2023-09-30T04:21:56;8.67;;;7.77;;
15202;SDS011;7702;51.046;5.184;2023-09-30T04:24:22;9.97;;;7.23;;
15202;SDS011;7702;51.046;5.184;2023-09-30T04:26:47;10.90;;;8.23;;
15202;SDS011;7702;51.046;5.184;2023-09-30T04:29:15;13.33;;;9.83;;
15202;SDS011;7702;51.046;5.184;2023-09-30T04:31:41;13.80;;;9.73;;
15202;SDS011;7702;51.046;5.184;2023-09-30T04:34:07;14.40;;;9.40;;
15202;SDS011;7702;51.046;5.184;2023-09-30T04:36:33;14.17;;;10.50;;
15202;SDS011;7702;51.046;5.184;2023-09-30T04:39:01;15.13;;;10.37;;
15202;SDS011;7702;51.046;5.184;2023-09-30T04:41:28;16.37;;;9.73;;
15202;SDS011;7702;51.046;5.184;2023-09-30T04:43:53;13.77;;;9.87;;
15202;SDS011;7702;51.046;5.184;2023-09-30T04:46:19;13.80;;;10.47;;
15202;SDS011;7702;51.046;5.184;2023-09-30T04:48:48;12.87;;;9.47;;
15202;SDS011;7702;51.046;5.184;2023-09-30T04:51:17;12.63;;;9.13;;
15202;SDS011;7702;51.046;5.184;2023-09-30T04:53:43;12.47;;;10.27;;
15202;SDS011;7702;51.046;5.184;2023-09-30T04:56:11;15.30;;;9.47;;
15202;SDS011;7702;51.046;5.184;2023-09-30T04:58:37;15.33;;;10.27;;
15202;SDS011;7702;51.046;5.184;2023-09-30T05:01:03;12.27;;;8.40;;
15202;SDS011;7702;51.046;5.184;2023-09-30T05:03:29;13.13;;;9.40;;
15202;SDS011;7702;51.046;5.184;2023-09-30T05:05:54;14.00;;;9.43;;
15202;SDS011;7702;51.046;5.184;2023-09-30T05:08:22;11.47;;;8.77;;
15202;SDS011;7702;51.046;5.184;2023-09-30T05:10:49;13.90;;;9.13;;
15202;SDS011;7702;51.046;5.184;2023-09-30T05:13:15;11.80;;;9.17;;
15202;SDS011;7702;51.046;5.184;2023-09-30T05:15:40;11.00;;;9.00;;
15202;SDS011;7702;51.046;5.184;2023-09-30T05:18:07;10.87;;;8.80;;
15202;SDS011;7702;51.046;5.184;2023-09-30T05:20:36;12.13;;;9.50;;
15202;SDS011;7702;51.046;5.184;2023-09-30T05:23:03;14.37;;;9.20;;
15202;SDS011;7702;51.046;5.184;2023-09-30T05:25:31;12.17;;;9.13;;
15202;SDS011;7702;51.046;5.184;2023-09-30T05:27:57;12.87;;;9.20;;
15202;SDS011;7702;51.046;5.184;2023-09-30T05:30:23;14.43;;;9.50;;
15202;SDS011;7702;51.046;5.184;2023-09-30T05:32:50;10.73;;;8.17;;
15202;SDS011;7702;51.046;5.184;2023-09-30T05:35:17;15.53;;;9.47;;
15202;SDS011;7702;51.046;5.184;2023-09-30T05:37:43;11.03;;;8.37;;
15202;SDS011;7702;51.046;5.184;2023-09-30T05:40:12;12.20;;;8.40;;
15202;SDS011;7702;51.046;5.184;2023-09-30T05:42:47;16.80;;;9.80;;
15202;SDS011;7702;51.046;5.184;2023-09-30T05:45:16;18.80;;;12.07;;
15202;SDS011;7702;51.046;5.184;2023-09-30T05:47:42;18.17;;;11.27;;
15202;SDS011;7702;51.046;5.184;2023-09-30T05:50:09;28.27;;;12.97;;
15202;SDS011;7702;51.046;5.184;2023-09-30T05:52:39;19.03;;;11.03;;
15202;SDS011;7702;51.046;5.184;2023-09-30T05:55:05;24.23;;;11.20;;
15202;SDS011;7702;51.046;5.184;2023-09-30T05:57:32;20.23;;;11.30;;
15202;SDS011;7702;51.046;5.184;2023-09-30T05:59:58;24.27;;;10.90;;
15202;SDS011;7702;51.046;5.184;2023-09-30T06:02:24;27.80;;;10.53;;
15202;SDS011;7702;51.046;5.184;2023-09-30T06:04:50;20.13;;;10.90;;
15202;SDS011;7702;51.046;5.184;2023-09-30T06:07:18;16.57;;;10.10;;
15202;SDS011;7702;51.046;5.184;2023-09-30T06:09:45;15.80;;;9.60;;
15202;SDS011;7702;51.046;5.184;2023-09-30T06:12:14;16.90;;;11.00;;
15202;SDS011;7702;51.046;5.184;2023-09-30T06:14:40;18.00;;;11.30;;
15202;SDS011;7702;51.046;5.184;2023-09-30T06:17:06;45.00;;;13.70;;
15202;SDS011;7702;51.046;5.184;2023-09-30T06:19:32;33.67;;;12.07;;
15202;SDS011;7702;51.046;5.184;2023-09-30T06:21:58;26.73;;;12.63;;
15202;SDS011;7702;51.046;5.184;2023-09-30T06:24:24;34.30;;;12.20;;
15202;SDS011;7702;51.046;5.184;2023-09-30T06:26:50;42.20;;;13.90;;
15202;SDS011;7702;51.046;5.184;2023-09-30T06:29:16;33.80;;;12.77;;
15202;SDS011;7702;51.046;5.184;2023-09-30T06:31:42;47.30;;;13.57;;
15202;SDS011;7702;51.046;5.184;2023-09-30T06:34:08;40.00;;;14.03;;
15202;SDS011;7702;51.046;5.184;2023-09-30T06:36:36;53.97;;;14.67;;
15202;SDS011;7702;51.046;5.184;2023-09-30T06:39:02;41.57;;;14.30;;
15202;SDS011;7702;51.046;5.184;2023-09-30T06:41:30;55.10;;;16.37;;
15202;SDS011;7702;51.046;5.184;2023-09-30T06:43:56;51.30;;;15.30;;
15202;SDS011;7702;51.046;5.184;2023-09-30T06:46:22;63.03;;;16.03;;
15202;SDS011;7702;51.046;5.184;2023-09-30T06:48:49;33.17;;;14.70;;
15202;SDS011;7702;51.046;5.184;2023-09-30T06:51:17;49.40;;;14.60;;
15202;SDS011;7702;51.046;5.184;2023-09-30T06:53:43;29.27;;;12.67;;
15202;SDS011;7702;51.046;5.184;2023-09-30T06:56:10;32.20;;;14.53;;
15202;SDS011;7702;51.046;5.184;2023-09-30T06:58:37;65.83;;;16.27;;
15202;SDS011;7702;51.046;5.184;2023-09-30T07:01:03;49.27;;;14.87;;
15202;SDS011;7702;51.046;5.184;2023-09-30T07:03:29;40.67;;;15.33;;
15202;SDS011;7702;51.046;5.184;2023-09-30T07:05:55;57.53;;;16.30;;
15202;SDS011;7702;51.046;5.184;2023-09-30T07:08:22;47.07;;;14.17;;
15202;SDS011;7702;51.046;5.184;2023-09-30T07:10:47;51.33;;;27.03;;
15202;SDS011;7702;51.046;5.184;2023-09-30T07:13:17;42.77;;;16.43;;
15202;SDS011;7702;51.046;5.184;2023-09-30T07:15:43;46.40;;;14.30;;
15202;SDS011;7702;51.046;5.184;2023-09-30T07:18:09;43.67;;;16.33;;
15202;SDS011;7702;51.046;5.184;2023-09-30T07:20:34;29.93;;;15.27;;
15202;SDS011;7702;51.046;5.184;2023-09-30T07:23:00;19.40;;;14.70;;
15202;SDS011;7702;51.046;5.184;2023-09-30T07:25:28;21.57;;;14.27;;
15202;SDS011;7702;51.046;5.184;2023-09-30T07:27:56;29.23;;;15.80;;
15202;SDS011;7702;51.046;5.184;2023-09-30T07:30:23;31.80;;;14.97;;
15202;SDS011;7702;51.046;5.184;2023-09-30T07:32:49;23.00;;;15.47;;
15202;SDS011;7702;51.046;5.184;2023-09-30T07:35:15;23.43;;;14.50;;
15202;SDS011;7702;51.046;5.184;2023-09-30T07:37:41;21.43;;;15.27;;
15202;SDS011;7702;51.046;5.184;2023-09-30T07:40:07;23.47;;;15.87;;
15202;SDS011;7702;51.046;5.184;2023-09-30T07:42:35;26.13;;;16.13;;
15202;SDS011;7702;51.046;5.184;2023-09-30T07:45:01;25.33;;;16.00;;
15202;SDS011;7702;51.046;5.184;2023-09-30T07:47:29;22.77;;;16.90;;
15202;SDS011;7702;51.046;5.184;2023-09-30T07:49:56;22.13;;;16.97;;
15202;SDS011;7702;51.046;5.184;2023-09-30T07:52:21;23.00;;;15.90;;
15202;SDS011;7702;51.046;5.184;2023-09-30T07:54:47;22.53;;;17.33;;
15202;SDS011;7702;51.046;5.184;2023-09-30T07:57:13;21.73;;;16.50;;
15202;SDS011;7702;51.046;5.184;2023-09-30T07:59:39;23.37;;;16.27;;
15202;SDS011;7702;51.046;5.184;2023-09-30T08:02:05;20.97;;;16.17;;
15202;SDS011;7702;51.046;5.184;2023-09-30T08:04:31;20.63;;;17.17;;
15202;SDS011;7702;51.046;5.184;2023-09-30T08:06:57;22.13;;;17.03;;
15202;SDS011;7702;51.046;5.184;2023-09-30T08:09:23;23.40;;;17.93;;
15202;SDS011;7702;51.046;5.184;2023-09-30T08:11:49;26.67;;;16.63;;
15202;SDS011;7702;51.046;5.184;2023-09-30T08:14:15;22.83;;;16.47;;
15202;SDS011;7702;51.046;5.184;2023-09-30T08:16:41;20.20;;;15.73;;
15202;SDS011;7702;51.046;5.184;2023-09-30T08:19:08;19.17;;;16.03;;
15202;SDS011;7702;51.046;5.184;2023-09-30T08:21:34;20.37;;;16.43;;
15202;SDS011;7702;51.046;5.184;2023-09-30T08:24:01;19.73;;;15.23;;
15202;SDS011;7702;51.046;5.184;2023-09-30T08:26:27;16.60;;;14.00;;
15202;SDS011;7702;51.046;5.184;2023-09-30T08:28:53;18.17;;;14.40;;
15202;SDS011;7702;51.046;5.184;2023-09-30T08:31:19;16.53;;;13.20;;
15202;SDS011;7702;51.046;5.184;2023-09-30T08:33:46;17.60;;;13.93;;
15202;SDS011;7702;51.046;5.184;2023-09-30T08:36:12;16.40;;;13.03;;
15202;SDS011;7702;51.046;5.184;2023-09-30T08:38:39;19.27;;;14.00;;
15202;SDS011;7702;51.046;5.184;2023-09-30T08:41:06;16.77;;;13.47;;
15202;SDS011;7702;51.046;5.184;2023-09-30T08:43:39;19.03;;;12.77;;
15202;SDS011;7702;51.046;5.184;2023-09-30T08:46:05;18.23;;;13.83;;
15202;SDS011;7702;51.046;5.184;2023-09-30T08:48:31;16.70;;;12.63;;
15202;SDS011;7702;51.046;5.184;2023-09-30T08:50:59;14.23;;;12.40;;
15202;SDS011;7702;51.046;5.184;2023-09-30T08:53:25;17.73;;;12.33;;
15202;SDS011;7702;51.046;5.184;2023-09-30T08:55:55;15.50;;;12.90;;
15202;SDS011;7702;51.046;5.184;2023-09-30T08:58:24;18.93;;;13.73;;
15202;SDS011;7702;51.046;5.184;2023-09-30T09:00:51;21.23;;;13.57;;
15202;SDS011;7702;51.046;5.184;2023-09-30T09:03:20;18.20;;;14.87;;
15202;SDS011;7702;51.046;5.184;2023-09-30T09:05:46;16.70;;;14.80;;
15202;SDS011;7702;51.046;5.184;2023-09-30T09:08:19;17.93;;;14.73;;
15202;SDS011;7702;51.046;5.184;2023-09-30T09:10:58;18.77;;;14.77;;
15202;SDS011;7702;51.046;5.184;2023-09-30T09:13:25;17.87;;;15.43;;
15202;SDS011;7702;51.046;5.184;2023-09-30T09:16:07;17.93;;;16.03;;
15202;SDS011;7702;51.046;5.184;2023-09-30T09:18:34;18.80;;;16.60;;
15202;SDS011;7702;51.046;5.184;2023-09-30T09:23:43;19.87;;;17.30;;
15202;SDS011;7702;51.046;5.184;2023-09-30T09:26:22;18.77;;;16.77;;
15202;SDS011;7702;51.046;5.184;2023-09-30T09:28:50;21.10;;;18.87;;
15202;SDS011;7702;51.046;5.184;2023-09-30T09:31:28;21.17;;;18.87;;
15202;SDS011;7702;51.046;5.184;2023-09-30T09:33:59;23.93;;;20.07;;
15202;SDS011;7702;51.046;5.184;2023-09-30T09:36:42;26.07;;;23.37;;
15202;SDS011;7702;51.046;5.184;2023-09-30T09:39:09;29.27;;;23.90;;
15202;SDS011;7702;51.046;5.184;2023-09-30T09:41:53;30.13;;;26.93;;
15202;SDS011;7702;51.046;5.184;2023-09-30T09:44:22;29.83;;;25.40;;
15202;SDS011;7702;51.046;5.184;2023-09-30T09:46:50;34.53;;;27.37;;
15202;SDS011;7702;51.046;5.184;2023-09-30T09:49:16;30.47;;;26.80;;
15202;SDS011;7702;51.046;5.184;2023-09-30T09:51:44;31.70;;;27.23;;
15202;SDS011;7702;51.046;5.184;2023-09-30T09:54:14;32.03;;;26.70;;
15202;SDS011;7702;51.046;5.184;2023-09-30T09:56:44;33.27;;;27.97;;
15202;SDS011;7702;51.046;5.184;2023-09-30T09:59:14;35.90;;;28.43;;
15202;SDS011;7702;51.046;5.184;2023-09-30T10:01:40;35.90;;;30.73;;
15202;SDS011;7702;51.046;5.184;2023-09-30T10:04:07;34.67;;;29.60;;
15202;SDS011;7702;51.046;5.184;2023-09-30T10:06:35;36.77;;;31.27;;
15202;SDS011;7702;51.046;5.184;2023-09-30T10:09:07;35.87;;;30.80;;
15202;SDS011;7702;51.046;5.184;2023-09-30T10:11:35;37.77;;;30.07;;
15202;SDS011;7702;51.046;5.184;2023-09-30T10:14:03;40.20;;;32.10;;
15202;SDS011;7702;51.046;5.184;2023-09-30T10:19:07;35.30;;;30.27;;
15202;SDS011;7702;51.046;5.184;2023-09-30T10:24:44;34.97;;;30.33;;
15202;SDS011;7702;51.046;5.184;2023-09-30T10:35:20;25.90;;;23.27;;
15202;SDS011;7702;51.046;5.184;2023-09-30T10:38:49;24.93;;;22.13;;
15202;SDS011;7702;51.046;5.184;2023-09-30T10:40:58;22.20;;;19.57;;
15202;SDS011;7702;51.046;5.184;2023-09-30T10:46:00;19.30;;;17.30;;
15202;SDS011;7702;51.046;5.184;2023-09-30T10:50:55;15.77;;;14.10;;
15202;SDS011;7702;51.046;5.184;2023-09-30T10:53:25;15.27;;;13.67;;
15202;SDS011;7702;51.046;5.184;2023-09-30T10:55:55;15.93;;;13.20;;
15202;SDS011;7702;51.046;5.184;2023-09-30T10:58:21;15.53;;;14.00;;
15202;SDS011;7702;51.046;5.184;2023-09-30T11:00:53;14.17;;;12.77;;
15202;SDS011;7702;51.046;5.184;2023-09-30T11:03:20;13.03;;;11.73;;
15202;SDS011;7702;51.046;5.184;2023-09-30T11:05:50;12.57;;;11.37;;
15202;SDS011;7702;51.046;5.184;2023-09-30T11:08:19;15.30;;;12.50;;
15202;SDS011;7702;51.046;5.184;2023-09-30T11:10:50;11.53;;;10.23;;
15202;SDS011;7702;51.046;5.184;2023-09-30T11:13:19;13.80;;;12.37;;
15202;SDS011;7702;51.046;5.184;2023-09-30T11:15:46;13.47;;;11.10;;
15202;SDS011;7702;51.046;5.184;2023-09-30T11:18:13;13.50;;;10.27;;
15202;SDS011;7702;51.046;5.184;2023-09-30T11:20:39;11.00;;;9.70;;
15202;SDS011;7702;51.046;5.184;2023-09-30T11:23:06;11.17;;;9.83;;
15202;SDS011;7702;51.046;5.184;2023-09-30T11:25:35;10.83;;;9.60;;
15202;SDS011;7702;51.046;5.184;2023-09-30T11:28:14;13.60;;;10.57;;
15202;SDS011;7702;51.046;5.184;2023-09-30T11:33:23;11.57;;;9.63;;
15202;SDS011;7702;51.046;5.184;2023-09-30T11:38:44;15.27;;;9.07;;
15202;SDS011;7702;51.046;5.184;2023-09-30T11:41:11;9.67;;;8.23;;
15202;SDS011;7702;51.046;5.184;2023-09-30T11:43:37;11.03;;;9.40;;
15202;SDS011;7702;51.046;5.184;2023-09-30T11:46:11;10.03;;;8.87;;
15202;SDS011;7702;51.046;5.184;2023-09-30T11:48:39;12.87;;;9.43;;
15202;SDS011;7702;51.046;5.184;2023-09-30T11:51:21;12.23;;;8.33;;
15202;SDS011;7702;51.046;5.184;2023-09-30T11:53:49;9.70;;;8.57;;
15202;SDS011;7702;51.046;5.184;2023-09-30T11:56:23;8.60;;;7.67;;
15202;SDS011;7702;51.046;5.184;2023-09-30T11:58:54;11.07;;;8.77;;
15202;SDS011;7702;51.046;5.184;2023-09-30T12:01:20;11.37;;;8.60;;
15202;SDS011;7702;51.046;5.184;2023-09-30T12:03:47;10.60;;;9.43;;
15202;SDS011;7702;51.046;5.184;2023-09-30T12:06:14;11.30;;;9.17;;
15202;SDS011;7702;51.046;5.184;2023-09-30T12:08:41;10.90;;;9.00;;
15202;SDS011;7702;51.046;5.184;2023-09-30T12:11:07;9.53;;;8.63;;
15202;SDS011;7702;51.046;5.184;2023-09-30T12:13:37;9.50;;;8.57;;
15202;SDS011;7702;51.046;5.184;2023-09-30T12:16:03;9.97;;;8.90;;
15202;SDS011;7702;51.046;5.184;2023-09-30T12:18:30;13.20;;;9.37;;
15202;SDS011;7702;51.046;5.184;2023-09-30T12:20:55;9.87;;;8.37;;
15202;SDS011;7702;51.046;5.184;2023-09-30T12:23:21;9.73;;;8.53;;
15202;SDS011;7702;51.046;5.184;2023-09-30T12:25:47;8.87;;;7.67;;
15202;SDS011;7702;51.046;5.184;2023-09-30T12:28:13;9.90;;;8.90;;
15202;SDS011;7702;51.046;5.184;2023-09-30T12:30:46;11.03;;;8.70;;
15202;SDS011;7702;51.046;5.184;2023-09-30T12:33:12;8.80;;;7.90;;
15202;SDS011;7702;51.046;5.184;2023-09-30T12:35:38;8.40;;;7.60;;
15202;SDS011;7702;51.046;5.184;2023-09-30T12:38:05;10.83;;;7.73;;
15202;SDS011;7702;51.046;5.184;2023-09-30T12:40:30;9.07;;;8.10;;
15202;SDS011;7702;51.046;5.184;2023-09-30T12:42:56;8.33;;;7.53;;
15202;SDS011;7702;51.046;5.184;2023-09-30T12:45:22;10.13;;;7.90;;
15202;SDS011;7702;51.046;5.184;2023-09-30T12:47:48;10.80;;;8.27;;
15202;SDS011;7702;51.046;5.184;2023-09-30T12:50:17;8.83;;;7.97;;
15202;SDS011;7702;51.046;5.184;2023-09-30T12:52:43;9.00;;;7.83;;
15202;SDS011;7702;51.046;5.184;2023-09-30T12:55:09;10.33;;;7.53;;
15202;SDS011;7702;51.046;5.184;2023-09-30T12:57:36;8.77;;;7.53;;
15202;SDS011;7702;51.046;5.184;2023-09-30T13:00:01;8.53;;;7.30;;
15202;SDS011;7702;51.046;5.184;2023-09-30T13:02:28;8.70;;;7.70;;
15202;SDS011;7702;51.046;5.184;2023-09-30T13:04:54;10.47;;;7.57;;
15202;SDS011;7702;51.046;5.184;2023-09-30T13:07:19;8.23;;;6.90;;
15202;SDS011;7702;51.046;5.184;2023-09-30T13:09:45;8.67;;;6.90;;
15202;SDS011;7702;51.046;5.184;2023-09-30T13:12:11;8.10;;;7.30;;
15202;SDS011;7702;51.046;5.184;2023-09-30T13:14:37;7.67;;;6.37;;
15202;SDS011;7702;51.046;5.184;2023-09-30T13:17:03;8.17;;;6.87;;
15202;SDS011;7702;51.046;5.184;2023-09-30T13:19:30;8.50;;;7.60;;
15202;SDS011;7702;51.046;5.184;2023-09-30T13:21:58;8.97;;;7.83;;
15202;SDS011;7702;51.046;5.184;2023-09-30T13:24:23;10.43;;;8.00;;
15202;SDS011;7702;51.046;5.184;2023-09-30T13:26:49;9.10;;;7.27;;
15202;SDS011;7702;51.046;5.184;2023-09-30T13:29:17;9.17;;;7.07;;
15202;SDS011;7702;51.046;5.184;2023-09-30T13:31:44;10.20;;;7.67;;
15202;SDS011;7702;51.046;5.184;2023-09-30T13:34:10;8.13;;;7.30;;
15202;SDS011;7702;51.046;5.184;2023-09-30T13:36:37;10.17;;;6.93;;
15202;SDS011;7702;51.046;5.184;2023-09-30T13:39:03;8.67;;;6.77;;
15202;SDS011;7702;51.046;5.184;2023-09-30T13:41:34;7.47;;;6.63;;
15202;SDS011;7702;51.046;5.184;2023-09-30T13:44:00;8.53;;;7.10;;
15202;SDS011;7702;51.046;5.184;2023-09-30T13:46:26;10.83;;;6.87;;
15202;SDS011;7702;51.046;5.184;2023-09-30T13:48:53;8.60;;;6.80;;
15202;SDS011;7702;51.046;5.184;2023-09-30T13:51:19;7.57;;;5.87;;
15202;SDS011;7702;51.046;5.184;2023-09-30T13:53:44;9.03;;;6.37;;
15202;SDS011;7702;51.046;5.184;2023-09-30T13:56:10;6.53;;;5.50;;
15202;SDS011;7702;51.046;5.184;2023-09-30T13:58:36;8.67;;;6.03;;
15202;SDS011;7702;51.046;5.184;2023-09-30T14:01:02;9.13;;;6.27;;
15202;SDS011;7702;51.046;5.184;2023-09-30T14:03:28;7.60;;;5.67;;
15202;SDS011;7702;51.046;5.184;2023-09-30T14:05:54;6.20;;;5.30;;
15202;SDS011;7702;51.046;5.184;2023-09-30T14:08:21;8.50;;;5.77;;
15202;SDS011;7702;51.046;5.184;2023-09-30T14:10:47;10.00;;;5.50;;
15202;SDS011;7702;51.046;5.184;2023-09-30T14:13:13;7.03;;;5.67;;
15202;SDS011;7702;51.046;5.184;2023-09-30T14:15:40;7.30;;;5.67;;
15202;SDS011;7702;51.046;5.184;2023-09-30T14:18:05;7.33;;;5.30;;
15202;SDS011;7702;51.046;5.184;2023-09-30T14:20:31;6.93;;;5.23;;
15202;SDS011;7702;51.046;5.184;2023-09-30T14:22:59;8.33;;;5.20;;
15202;SDS011;7702;51.046;5.184;2023-09-30T14:25:24;7.13;;;5.37;;
15202;SDS011;7702;51.046;5.184;2023-09-30T14:27:51;5.97;;;5.27;;
15202;SDS011;7702;51.046;5.184;2023-09-30T14:30:17;6.93;;;5.57;;
15202;SDS011;7702;51.046;5.184;2023-09-30T14:32:42;6.73;;;5.00;;
15202;SDS011;7702;51.046;5.184;2023-09-30T14:35:08;7.10;;;5.10;;
15202;SDS011;7702;51.046;5.184;2023-09-30T14:37:35;7.27;;;5.77;;
15202;SDS011;7702;51.046;5.184;2023-09-30T14:40:01;7.43;;;4.70;;
15202;SDS011;7702;51.046;5.184;2023-09-30T14:42:31;8.57;;;5.70;;
15202;SDS011;7702;51.046;5.184;2023-09-30T14:44:57;5.90;;;4.53;;
15202;SDS011;7702;51.046;5.184;2023-09-30T14:47:22;7.43;;;4.63;;
15202;SDS011;7702;51.046;5.184;2023-09-30T14:49:48;6.63;;;4.53;;
15202;SDS011;7702;51.046;5.184;2023-09-30T14:52:14;9.00;;;5.10;;
15202;SDS011;7702;51.046;5.184;2023-09-30T14:54:40;6.80;;;4.23;;
15202;SDS011;7702;51.046;5.184;2023-09-30T14:57:07;9.00;;;4.83;;
15202;SDS011;7702;51.046;5.184;2023-09-30T14:59:34;7.13;;;4.50;;
15202;SDS011;7702;51.046;5.184;2023-09-30T15:02:00;6.37;;;4.23;;
15202;SDS011;7702;51.046;5.184;2023-09-30T15:04:26;7.80;;;5.13;;
15202;SDS011;7702;51.046;5.184;2023-09-30T15:06:52;5.73;;;3.97;;
15202;SDS011;7702;51.046;5.184;2023-09-30T15:09:18;8.73;;;4.50;;
15202;SDS011;7702;51.046;5.184;2023-09-30T15:11:44;6.83;;;4.43;;
15202;SDS011;7702;51.046;5.184;2023-09-30T15:14:09;7.07;;;3.63;;
15202;SDS011;7702;51.046;5.184;2023-09-30T15:16:35;6.20;;;3.87;;